Time;durP1;ratioP1;P1;durP2;ratioP2;P2;SDS_P1;SDS_P2;PMS_P1;PMS_P2;Temp;Humidity;BMP_temperature;BMP_pressure;BME280_temperature;BME280_humidity;BME280_pressure;Samples;Min_cycle;Max_cycle;Signal;HPM_P1;HPM_P2
2023/06/30 00:00:45;;;;;;;5.30;4.30;;;;;;;;;;5013241;28;20197;-72
2023/06/30 00:03:49;;;;;;;5.30;4.60;;;;;;;;;;5013718;28;20205;-72
2023/06/30 00:06:56;;;;;;;4.53;4.10;;;;;;;;;;5013537;28;20186;-72
2023/06/30 00:10:00;;;;;;;5.93;4.67;;;;;;;;;;5013472;28;20178;-72
2023/06/30 00:13:04;;;;;;;6.33;4.73;;;;;;;;;;5012357;28;20209;-72
2023/06/30 00:16:08;;;;;;;6.07;4.77;;;;;;;;;;5012906;28;20181;-72
2023/06/30 00:19:12;;;;;;;5.83;4.30;;;;;;;;;;5013616;28;20182;-72
2023/06/30 00:22:19;;;;;;;5.60;4.47;;;;;;;;;;5013350;28;20217;-72
2023/06/30 00:25:23;;;;;;;5.40;4.83;;;;;;;;;;5013059;28;20201;-72
2023/06/30 00:28:27;;;;;;;6.77;4.67;;;;;;;;;;5012530;28;20544;-72
2023/06/30 00:31:33;;;;;;;6.63;4.90;;;;;;;;;;5012069;28;20225;-72
2023/06/30 00:34:37;;;;;;;4.80;4.30;;;;;;;;;;5015816;28;20648;-72
2023/06/30 00:37:41;;;;;;;5.43;4.50;;;;;;;;;;5016024;28;20182;-72
2023/06/30 00:40:45;;;;;;;7.53;4.80;;;;;;;;;;5016460;28;20629;-73
2023/06/30 00:43:49;;;;;;;6.40;5.40;;;;;;;;;;5004844;28;20182;-73
2023/06/30 00:46:54;;;;;;;7.80;5.00;;;;;;;;;;5005035;28;20178;-71
2023/06/30 00:50:02;;;;;;;6.93;4.97;;;;;;;;;;5015864;28;20185;-73
2023/06/30 00:53:07;;;;;;;5.60;4.80;;;;;;;;;;5015833;28;20225;-72
2023/06/30 00:56:12;;;;;;;6.77;5.23;;;;;;;;;;5015602;28;20193;-72
2023/06/30 00:59:16;;;;;;;7.23;5.40;;;;;;;;;;5015548;28;20194;-72
2023/06/30 01:02:24;;;;;;;6.27;5.40;;;;;;;;;;5016047;28;20217;-72
2023/06/30 01:05:48;;;;;;;7.00;6.03;;;;;;;;;;5016311;28;20186;-72
2023/06/30 01:09:01;;;;;;;6.93;6.00;;;;;;;;;;5015684;28;20625;-72
2023/06/30 01:12:08;;;;;;;8.20;6.10;;;;;;;;;;5015299;28;20222;-72
2023/06/30 01:15:14;;;;;;;7.53;6.20;;;;;;;;;;5015527;28;20648;-72
2023/06/30 01:18:19;;;;;;;7.40;6.30;;;;;;;;;;5015512;28;20209;-72
2023/06/30 01:21:24;;;;;;;8.67;6.13;;;;;;;;;;5015120;28;20557;-72
2023/06/30 01:24:34;;;;;;;7.93;5.97;;;;;;;;;;5015144;28;20205;-72
2023/06/30 01:27:40;;;;;;;8.40;5.80;;;;;;;;;;5015285;28;20201;-72
2023/06/30 01:30:46;;;;;;;6.37;5.77;;;;;;;;;;5004474;28;20201;-72
2023/06/30 01:33:51;;;;;;;6.20;5.33;;;;;;;;;;5015968;28;20174;-72
2023/06/30 01:36:55;;;;;;;8.40;6.20;;;;;;;;;;5014908;28;20178;-72
2023/06/30 01:40:00;;;;;;;7.00;5.60;;;;;;;;;;5015636;28;20186;-72
2023/06/30 01:43:04;;;;;;;6.30;5.50;;;;;;;;;;5003615;28;20217;-72
2023/06/30 01:46:09;;;;;;;7.03;5.53;;;;;;;;;;5013940;28;20197;-72
2023/06/30 01:49:12;;;;;;;8.83;6.07;;;;;;;;;;5015911;28;20178;-72
2023/06/30 01:52:17;;;;;;;7.23;6.57;;;;;;;;;;5014691;28;20561;-72
2023/06/30 01:55:22;;;;;;;8.37;6.20;;;;;;;;;;5015841;28;20177;-72
2023/06/30 01:58:26;;;;;;;7.53;6.30;;;;;;;;;;5015552;28;20534;-72
2023/06/30 02:01:30;;;;;;;9.40;7.00;;;;;;;;;;5014843;28;20209;-72
2023/06/30 02:04:34;;;;;;;7.67;6.90;;;;;;;;;;5014567;28;20190;-72
2023/06/30 02:07:38;;;;;;;7.20;6.50;;;;;;;;;;5014604;28;20190;-72
2023/06/30 02:10:44;;;;;;;7.97;6.47;;;;;;;;;;5014783;28;20186;-72
2023/06/30 02:13:49;;;;;;;7.00;6.30;;;;;;;;;;5003243;28;20640;-72
2023/06/30 02:16:53;;;;;;;9.53;6.47;;;;;;;;;;5003413;28;20628;-72
2023/06/30 02:20:03;;;;;;;8.37;6.30;;;;;;;;;;5014348;28;20182;-72
2023/06/30 02:23:07;;;;;;;7.90;6.77;;;;;;;;;;5002773;28;20214;-72
2023/06/30 02:26:11;;;;;;;10.83;7.20;;;;;;;;;;5028763;22;20233;-73
2023/06/30 02:29:15;;;;;;;8.40;6.40;;;;;;;;;;5003016;28;20178;-73
2023/06/30 02:32:20;;;;;;;7.50;6.70;;;;;;;;;;5025703;28;20229;-73
2023/06/30 02:35:25;;;;;;;7.97;6.67;;;;;;;;;;5014153;28;20636;-73
2023/06/30 02:38:31;;;;;;;7.67;6.60;;;;;;;;;;5013994;28;20189;-73
2023/06/30 02:41:36;;;;;;;7.40;6.47;;;;;;;;;;5014727;28;20216;-73
2023/06/30 02:44:40;;;;;;;7.47;6.47;;;;;;;;;;5025795;28;20525;-73
2023/06/30 02:47:44;;;;;;;8.77;6.50;;;;;;;;;;5025577;28;20517;-73
2023/06/30 02:50:49;;;;;;;8.13;6.93;;;;;;;;;;5014542;28;20185;-73
2023/06/30 02:53:54;;;;;;;9.83;6.57;;;;;;;;;;5013792;28;20169;-73
2023/06/30 02:56:58;;;;;;;9.57;6.57;;;;;;;;;;5024402;28;20189;-73
2023/06/30 03:00:03;;;;;;;7.90;5.90;;;;;;;;;;5025294;28;20181;-73
2023/06/30 03:03:08;;;;;;;6.80;6.00;;;;;;;;;;5013548;28;20209;-73
2023/06/30 03:06:12;;;;;;;7.10;5.90;;;;;;;;;;5014096;28;20514;-73
2023/06/30 03:09:17;;;;;;;9.63;6.10;;;;;;;;;;5013893;28;20186;-73
2023/06/30 03:12:21;;;;;;;10.03;7.47;;;;;;;;;;5002054;28;20228;-73
2023/06/30 03:15:26;;;;;;;9.27;6.60;;;;;;;;;;5014186;28;20685;-73
2023/06/30 03:18:30;;;;;;;10.77;6.63;;;;;;;;;;5013862;28;20181;-73
2023/06/30 03:21:34;;;;;;;7.93;6.73;;;;;;;;;;5013176;28;20307;-73
2023/06/30 03:24:39;;;;;;;8.90;6.47;;;;;;;;;;5002431;28;20178;-73
2023/06/30 03:27:44;;;;;;;6.80;6.20;;;;;;;;;;5024561;28;20173;-73
2023/06/30 03:30:48;;;;;;;7.23;6.50;;;;;;;;;;5002248;28;20181;-73
2023/06/30 03:33:53;;;;;;;7.70;6.40;;;;;;;;;;5014400;28;20664;-74
2023/06/30 03:36:57;;;;;;;7.50;5.37;;;;;;;;;;5002118;28;20182;-74
2023/06/30 03:40:04;;;;;;;4.67;4.27;;;;;;;;;;5024208;28;20201;-74
2023/06/30 03:43:10;;;;;;;4.80;4.30;;;;;;;;;;5013713;28;20217;-74
2023/06/30 03:46:15;;;;;;;5.10;4.30;;;;;;;;;;5001809;28;20181;-74
2023/06/30 03:49:19;;;;;;;7.60;4.50;;;;;;;;;;5013641;28;20177;-74
2023/06/30 03:52:23;;;;;;;6.93;6.23;;;;;;;;;;5012812;28;20221;-75
2023/06/30 03:55:28;;;;;;;6.40;5.80;;;;;;;;;;5013469;28;20342;-74
2023/06/30 03:58:32;;;;;;;5.57;4.27;;;;;;;;;;5012920;28;20178;-74
2023/06/30 04:01:39;;;;;;;5.83;5.13;;;;;;;;;;5013906;28;20213;-75
2023/06/30 04:04:44;;;;;;;5.83;5.20;;;;;;;;;;5001925;28;20185;-75
2023/06/30 04:07:48;;;;;;;9.83;5.13;;;;;;;;;;5014835;28;20185;-74
2023/06/30 04:10:52;;;;;;;9.73;5.17;;;;;;;;;;5018057;28;20185;-74
2023/06/30 04:13:59;;;;;;;6.47;5.37;;;;;;;;;;5017774;28;20209;-74
2023/06/30 04:17:03;;;;;;;6.93;5.13;;;;;;;;;;5005927;28;20177;-74
2023/06/30 04:20:09;;;;;;;6.17;5.60;;;;;;;;;;5016960;28;20185;-74
2023/06/30 04:23:13;;;;;;;8.00;7.20;;;;;;;;;;5028162;28;20212;-74
2023/06/30 04:26:17;;;;;;;7.90;6.27;;;;;;;;;;5017878;28;20208;-74
2023/06/30 04:29:21;;;;;;;7.53;6.00;;;;;;;;;;5016955;28;20525;-74
2023/06/30 04:32:25;;;;;;;7.33;5.13;;;;;;;;;;5028027;28;20229;-74
2023/06/30 04:35:30;;;;;;;8.80;5.67;;;;;;;;;;5016703;28;20182;-74
2023/06/30 04:38:34;;;;;;;7.10;5.90;;;;;;;;;;5016853;28;20628;-75
2023/06/30 04:41:38;;;;;;;8.20;6.40;;;;;;;;;;5027823;28;20217;-74
2023/06/30 04:44:42;;;;;;;6.97;5.67;;;;;;;;;;5016939;28;20169;-74
2023/06/30 04:47:46;;;;;;;6.80;5.93;;;;;;;;;;5016342;28;20671;-74
2023/06/30 04:50:51;;;;;;;7.53;5.93;;;;;;;;;;5016851;28;20177;-74
2023/06/30 04:53:55;;;;;;;6.57;5.97;;;;;;;;;;5017563;28;20205;-74
2023/06/30 04:56:59;;;;;;;6.87;6.17;;;;;;;;;;5016908;28;20535;-74
2023/06/30 05:00:03;;;;;;;8.90;7.03;;;;;;;;;;5016023;28;20182;-74
2023/06/30 05:03:09;;;;;;;8.80;6.87;;;;;;;;;;5016521;28;20569;-74
2023/06/30 05:06:13;;;;;;;6.53;5.87;;;;;;;;;;5016704;28;20182;-74
2023/06/30 05:09:18;;;;;;;6.87;6.07;;;;;;;;;;5016821;28;20174;-74
2023/06/30 05:12:22;;;;;;;9.20;6.90;;;;;;;;;;5016532;28;20698;-75
2023/06/30 05:15:26;;;;;;;7.17;6.43;;;;;;;;;;5016345;28;20186;-74
2023/06/30 05:18:30;;;;;;;8.77;6.50;;;;;;;;;;5016223;28;20197;-74
2023/06/30 05:21:34;;;;;;;9.10;7.00;;;;;;;;;;5016091;28;20213;-74
2023/06/30 05:24:39;;;;;;;7.57;6.53;;;;;;;;;;5016644;28;20173;-75
2023/06/30 05:27:43;;;;;;;8.30;6.93;;;;;;;;;;5016187;28;20174;-74
2023/06/30 05:30:47;;;;;;;6.20;5.60;;;;;;;;;;5015944;28;20182;-74
2023/06/30 05:33:51;;;;;;;7.43;6.60;;;;;;;;;;5015337;28;20210;-74
2023/06/30 05:36:55;;;;;;;9.47;8.47;;;;;;;;;;5004152;28;20181;-74
2023/06/30 05:40:00;;;;;;;7.13;6.40;;;;;;;;;;5016386;28;20186;-74
2023/06/30 05:43:04;;;;;;;7.07;6.37;;;;;;;;;;5015044;28;20217;-74
2023/06/30 05:46:07;;;;;;;8.33;6.70;;;;;;;;;;5003952;28;20514;-74
2023/06/30 05:49:12;;;;;;;8.07;6.57;;;;;;;;;;5015520;28;20174;-74
2023/06/30 05:52:16;;;;;;;9.07;7.33;;;;;;;;;;5014744;28;20217;-74
2023/06/30 05:55:20;;;;;;;9.90;7.70;;;;;;;;;;5015582;28;20201;-75
2023/06/30 05:58:25;;;;;;;8.60;6.70;;;;;;;;;;5015691;28;20186;-75
2023/06/30 06:01:29;;;;;;;11.33;7.67;;;;;;;;;;5026286;28;20561;-75
2023/06/30 06:04:33;;;;;;;8.07;7.30;;;;;;;;;;5015758;28;20181;-74
2023/06/30 06:07:37;;;;;;;9.10;7.10;;;;;;;;;;5014934;28;20190;-74
2023/06/30 06:10:42;;;;;;;7.70;6.50;;;;;;;;;;5015093;28;20177;-74
2023/06/30 06:13:46;;;;;;;9.97;6.87;;;;;;;;;;5014332;28;20213;-74
2023/06/30 06:16:50;;;;;;;8.73;7.40;;;;;;;;;;5014488;28;20636;-75
2023/06/30 06:19:55;;;;;;;10.13;8.20;;;;;;;;;;5015001;28;20185;-74
2023/06/30 06:23:00;;;;;;;8.67;7.77;;;;;;;;;;5015198;28;20217;-74
2023/06/30 06:26:04;;;;;;;8.57;7.67;;;;;;;;;;5014779;28;20213;-74
2023/06/30 06:29:08;;;;;;;10.67;8.17;;;;;;;;;;5014124;28;20193;-74
2023/06/30 06:32:12;;;;;;;10.13;7.97;;;;;;;;;;5013709;28;20212;-74
2023/06/30 06:35:16;;;;;;;11.03;8.50;;;;;;;;;;5013900;28;20181;-74
2023/06/30 06:38:20;;;;;;;9.50;8.30;;;;;;;;;;5014848;28;20201;-75
2023/06/30 06:41:24;;;;;;;8.47;7.43;;;;;;;;;;5014989;28;20225;-74
2023/06/30 06:44:28;;;;;;;11.07;7.53;;;;;;;;;;5014555;28;20624;-74
2023/06/30 06:48:10;;;;;;;16.37;7.90;;;;;;;;;;5014252;28;20185;-75
2023/06/30 06:51:14;;;;;;;14.13;8.67;;;;;;;;;;5025309;28;20183;-74
2023/06/30 06:54:18;;;;;;;9.97;7.83;;;;;;;;;;5013750;28;20706;-75
2023/06/30 06:57:22;;;;;;;10.37;8.07;;;;;;;;;;5024759;28;20189;-75
2023/06/30 07:00:27;;;;;;;9.70;8.03;;;;;;;;;;5014302;28;20177;-75
2023/06/30 07:03:31;;;;;;;11.23;8.93;;;;;;;;;;5013637;28;20514;-75
2023/06/30 07:06:34;;;;;;;10.13;8.70;;;;;;;;;;5013550;28;20181;-75
2023/06/30 07:09:39;;;;;;;11.60;9.33;;;;;;;;;;5014587;28;20544;-75
2023/06/30 07:12:43;;;;;;;15.00;8.63;;;;;;;;;;5024559;28;20216;-75
2023/06/30 07:15:48;;;;;;;9.67;8.50;;;;;;;;;;5014042;28;20568;-75
2023/06/30 07:18:52;;;;;;;9.33;7.83;;;;;;;;;;5024941;28;20181;-75
2023/06/30 07:21:56;;;;;;;8.77;7.83;;;;;;;;;;5014338;28;20217;-75
2023/06/30 07:25:02;;;;;;;10.07;8.80;;;;;;;;;;5013155;28;20637;-75
2023/06/30 07:28:06;;;;;;;11.23;8.20;;;;;;;;;;5013743;28;20188;-75
2023/06/30 07:31:10;;;;;;;11.33;9.03;;;;;;;;;;5012772;28;20204;-75
2023/06/30 07:34:18;;;;;;;12.97;9.37;;;;;;;;;;5013526;28;20229;-75
2023/06/30 07:37:21;;;;;;;12.40;9.43;;;;;;;;;;5012782;28;20184;-75
2023/06/30 07:40:25;;;;;;;10.37;8.63;;;;;;;;;;5013560;28;20554;-75
2023/06/30 07:43:30;;;;;;;10.67;7.97;;;;;;;;;;5001306;28;20185;-74
2023/06/30 07:46:34;;;;;;;12.33;9.67;;;;;;;;;;5001724;28;20189;-75
2023/06/30 07:49:39;;;;;;;10.87;8.33;;;;;;;;;;5001804;28;20659;-75
2023/06/30 07:52:44;;;;;;;10.83;8.73;;;;;;;;;;5012717;28;20225;-75
2023/06/30 07:55:48;;;;;;;11.53;9.33;;;;;;;;;;5013566;28;20185;-75
2023/06/30 07:58:52;;;;;;;10.37;8.07;;;;;;;;;;5013408;28;20174;-75
2023/06/30 08:01:56;;;;;;;9.63;8.10;;;;;;;;;;5013691;28;20216;-75
2023/06/30 08:05:01;;;;;;;11.17;8.60;;;;;;;;;;5001435;28;20177;-75
2023/06/30 08:08:05;;;;;;;13.23;8.27;;;;;;;;;;5012926;28;20190;-75
2023/06/30 08:11:09;;;;;;;14.30;9.90;;;;;;;;;;5013493;28;20553;-75
2023/06/30 08:14:14;;;;;;;13.17;10.00;;;;;;;;;;5012685;28;20228;-75
2023/06/30 08:17:18;;;;;;;13.80;9.03;;;;;;;;;;5013065;28;20671;-75
2023/06/30 08:20:22;;;;;;;11.00;7.67;;;;;;;;;;5013392;28;20189;-75
2023/06/30 08:23:26;;;;;;;12.37;9.47;;;;;;;;;;5013118;28;20182;-75
2023/06/30 08:26:30;;;;;;;11.30;8.87;;;;;;;;;;5027656;22;20236;-73
2023/06/30 08:29:35;;;;;;;12.27;8.90;;;;;;;;;;5013176;28;20178;-71
2023/06/30 08:32:40;;;;;;;10.93;7.33;;;;;;;;;;5023661;28;20288;-73
2023/06/30 08:35:44;;;;;;;10.10;8.03;;;;;;;;;;5023563;28;20201;-73
2023/06/30 08:38:48;;;;;;;9.97;6.83;;;;;;;;;;5012212;28;20576;-73
2023/06/30 08:41:54;;;;;;;8.43;6.50;;;;;;;;;;5012688;28;20213;-71
2023/06/30 08:44:58;;;;;;;11.63;6.90;;;;;;;;;;5013217;28;20181;-71
2023/06/30 08:48:04;;;;;;;7.70;6.93;;;;;;;;;;5012432;28;20257;-73
2023/06/30 08:51:09;;;;;;;9.23;6.73;;;;;;;;;;5012536;28;20174;-73
2023/06/30 08:54:13;;;;;;;9.20;7.20;;;;;;;;;;5014388;28;20214;-73
2023/06/30 08:57:20;;;;;;;11.20;7.47;;;;;;;;;;5016777;28;20178;-73
2023/06/30 09:00:25;;;;;;;9.10;7.40;;;;;;;;;;5016459;28;20186;-71
2023/06/30 09:03:29;;;;;;;9.50;6.77;;;;;;;;;;5016935;28;20177;-71
2023/06/30 09:06:37;;;;;;;9.07;6.43;;;;;;;;;;5015516;28;20201;-71
2023/06/30 09:09:44;;;;;;;8.83;6.40;;;;;;;;;;5016497;28;20205;-72
2023/06/30 09:12:51;;;;;;;9.03;6.37;;;;;;;;;;5016339;28;20217;-72
2023/06/30 09:15:57;;;;;;;8.30;5.80;;;;;;;;;;5016636;28;20166;-71
2023/06/30 09:19:01;;;;;;;8.93;5.67;;;;;;;;;;5016277;28;20189;-71
2023/06/30 09:22:06;;;;;;;7.97;6.50;;;;;;;;;;5016048;28;20217;-72
2023/06/30 09:25:42;;;;;;;8.17;6.20;;;;;;;;;;5015393;28;20177;-71
2023/06/30 09:28:46;;;;;;;9.17;6.83;;;;;;;;;;4993351;28;20202;-72
2023/06/30 09:31:51;;;;;;;8.70;6.17;;;;;;;;;;5016015;28;20221;-72
2023/06/30 09:34:55;;;;;;;9.57;7.07;;;;;;;;;;5026415;28;20228;-73
2023/06/30 09:37:59;;;;;;;10.57;7.00;;;;;;;;;;5003650;28;20201;-72
2023/06/30 09:41:07;;;;;;;10.67;6.50;;;;;;;;;;5015656;28;20223;-72
2023/06/30 09:44:13;;;;;;;8.60;6.63;;;;;;;;;;5015705;28;20192;-72
2023/06/30 09:47:17;;;;;;;8.70;6.43;;;;;;;;;;5015761;28;20186;-72
2023/06/30 09:50:29;;;;;;;9.60;7.20;;;;;;;;;;5015579;28;20528;-72
2023/06/30 09:53:41;;;;;;;12.30;8.60;;;;;;;;;;5015838;28;20188;-72
2023/06/30 09:56:45;;;;;;;11.43;8.63;;;;;;;;;;5015887;28;20191;-71
2023/06/30 09:59:50;;;;;;;14.17;9.50;;;;;;;;;;5014732;28;20203;-72
2023/06/30 10:03:02;;;;;;;17.13;12.27;;;;;;;;;;5015158;28;20240;-72
2023/06/30 10:06:06;;;;;;;16.10;12.03;;;;;;;;;;5014847;28;20559;-72
2023/06/30 10:09:10;;;;;;;20.90;13.80;;;;;;;;;;5014313;28;20185;-72
2023/06/30 10:12:17;;;;;;;19.00;13.87;;;;;;;;;;5025995;28;20296;-73
2023/06/30 10:15:21;;;;;;;21.40;15.57;;;;;;;;;;5014701;28;20226;-73
2023/06/30 10:18:28;;;;;;;19.93;15.80;;;;;;;;;;5015224;28;20305;-73
2023/06/30 10:21:33;;;;;;;22.47;16.87;;;;;;;;;;5015093;28;20328;-72
2023/06/30 10:24:41;;;;;;;19.70;16.43;;;;;;;;;;5014331;28;20188;-72
2023/06/30 10:27:47;;;;;;;23.97;17.70;;;;;;;;;;5014975;28;20218;-72
2023/06/30 10:30:52;;;;;;;23.23;16.73;;;;;;;;;;5015255;28;20180;-72
2023/06/30 10:33:56;;;;;;;24.77;17.63;;;;;;;;;;5015113;28;20192;-73
2023/06/30 10:37:00;;;;;;;23.50;18.10;;;;;;;;;;5015264;28;20648;-73
2023/06/30 10:40:25;;;;;;;24.77;18.40;;;;;;;;;;5015376;28;20184;-72
2023/06/30 10:43:33;;;;;;;26.23;19.53;;;;;;;;;;5025052;28;20187;-72
2023/06/30 10:46:47;;;;;;;24.60;17.60;;;;;;;;;;5014342;28;20177;-72
2023/06/30 10:49:53;;;;;;;14.07;11.03;;;;;;;;;;5014386;28;20185;-72
2023/06/30 10:52:57;;;;;;;12.13;8.40;;;;;;;;;;5002291;28;20290;-72
2023/06/30 10:56:02;;;;;;;17.23;7.53;;;;;;;;;;5014592;28;20223;-73
2023/06/30 10:59:07;;;;;;;11.13;7.83;;;;;;;;;;5013529;28;20185;-73
2023/06/30 11:02:18;;;;;;;18.70;9.20;;;;;;;;;;5014257;28;20213;-75
2023/06/30 11:05:32;;;;;;;17.00;9.57;;;;;;;;;;5013596;28;20679;-74
2023/06/30 11:08:36;;;;;;;16.90;9.20;;;;;;;;;;5024513;28;20562;-73
2023/06/30 11:11:48;;;;;;;14.90;9.00;;;;;;;;;;5013874;28;20596;-73
2023/06/30 11:14:57;;;;;;;14.97;8.13;;;;;;;;;;5013387;28;20224;-73
2023/06/30 11:18:02;;;;;;;11.37;7.97;;;;;;;;;;5024060;28;20189;-73
2023/06/30 11:21:07;;;;;;;11.13;8.50;;;;;;;;;;5013550;28;20621;-72
2023/06/30 11:24:15;;;;;;;13.03;9.17;;;;;;;;;;5013794;28;20186;-72
2023/06/30 11:27:20;;;;;;;15.67;11.37;;;;;;;;;;5013704;28;20209;-72
2023/06/30 11:30:25;;;;;;;14.97;10.90;;;;;;;;;;5013775;28;20204;-72
2023/06/30 11:33:29;;;;;;;15.53;11.23;;;;;;;;;;5024492;28;20184;-72
2023/06/30 11:36:34;;;;;;;18.00;12.13;;;;;;;;;;5014214;28;20184;-71
2023/06/30 11:39:38;;;;;;;14.40;10.57;;;;;;;;;;5014116;28;20200;-71
2023/06/30 11:42:42;;;;;;;15.33;11.40;;;;;;;;;;5013525;28;20224;-72
2023/06/30 11:45:58;;;;;;;14.50;11.43;;;;;;;;;;5024017;28;20683;-71
2023/06/30 11:49:01;;;;;;;15.33;11.07;;;;;;;;;;5012863;28;20206;-72
2023/06/30 11:52:07;;;;;;;14.87;11.43;;;;;;;;;;5012923;28;20224;-72
2023/06/30 11:55:12;;;;;;;13.87;10.97;;;;;;;;;;5013273;28;20216;-72
2023/06/30 11:58:19;;;;;;;15.37;11.30;;;;;;;;;;5014137;28;20209;-72
2023/06/30 12:01:23;;;;;;;13.57;10.23;;;;;;;;;;5012279;28;20225;-72
2023/06/30 12:04:33;;;;;;;16.10;11.50;;;;;;;;;;5012409;28;20204;-72
2023/06/30 12:07:38;;;;;;;16.47;11.80;;;;;;;;;;5013064;28;20190;-71
2023/06/30 12:10:42;;;;;;;14.97;11.47;;;;;;;;;;5012873;28;20188;-72
2023/06/30 12:13:47;;;;;;;16.80;12.00;;;;;;;;;;5013028;28;20208;-71
2023/06/30 12:16:51;;;;;;;15.83;11.17;;;;;;;;;;5013322;28;20767;-71
2023/06/30 12:19:55;;;;;;;17.53;12.30;;;;;;;;;;5013266;28;20202;-71
2023/06/30 12:22:59;;;;;;;17.27;11.87;;;;;;;;;;5023767;28;20576;-72
2023/06/30 12:26:04;;;;;;;13.87;10.67;;;;;;;;;;5001117;28;20208;-72
2023/06/30 12:29:08;;;;;;;14.50;10.90;;;;;;;;;;5013392;28;20186;-71
2023/06/30 12:32:16;;;;;;;13.20;11.03;;;;;;;;;;5016704;28;20221;-71
2023/06/30 12:35:28;;;;;;;15.47;11.50;;;;;;;;;;5016795;28;20213;-71
2023/06/30 12:38:32;;;;;;;15.23;11.80;;;;;;;;;;5016403;28;20194;-72
2023/06/30 12:41:36;;;;;;;15.27;12.07;;;;;;;;;;5016001;28;20220;-71
2023/06/30 12:44:40;;;;;;;18.00;12.80;;;;;;;;;;5016293;28;20191;-71
2023/06/30 12:47:44;;;;;;;15.23;11.80;;;;;;;;;;5016625;28;20190;-72
2023/06/30 12:50:49;;;;;;;17.13;12.57;;;;;;;;;;5015588;28;20578;-72
2023/06/30 12:53:53;;;;;;;15.80;12.07;;;;;;;;;;5016643;28;20194;-72
2023/06/30 12:56:57;;;;;;;15.57;11.80;;;;;;;;;;5015532;28;20192;-72
2023/06/30 13:00:06;;;;;;;17.60;12.90;;;;;;;;;;5015645;28;20186;-72
2023/06/30 13:03:10;;;;;;;18.67;13.20;;;;;;;;;;5016142;28;20588;-71
2023/06/30 13:06:14;;;;;;;14.45;12.20;;;;;;;;;;5015866;28;20184;-72
2023/06/30 13:09:18;;;;;;;17.20;13.48;;;;;;;;;;5016268;28;20189;-72
2023/06/30 13:12:25;;;;;;;17.65;13.32;;;;;;;;;;5015843;28;20591;-73
2023/06/30 13:15:30;;;;;;;14.68;12.00;;;;;;;;;;5016113;28;20216;-73
2023/06/30 13:18:34;;;;;;;20.67;13.00;;;;;;;;;;5016581;28;20540;-73
2023/06/30 13:21:38;;;;;;;17.75;13.23;;;;;;;;;;5016006;28;20225;-72
2023/06/30 13:24:43;;;;;;;16.13;12.68;;;;;;;;;;5015145;28;20193;-72
2023/06/30 13:27:47;;;;;;;16.70;12.68;;;;;;;;;;5015447;28;20215;-73
2023/06/30 13:30:51;;;;;;;15.63;12.15;;;;;;;;;;5016132;28;20197;-73
2023/06/30 13:33:55;;;;;;;16.73;12.93;;;;;;;;;;5016201;28;20192;-73
2023/06/30 13:36:59;;;;;;;15.68;11.93;;;;;;;;;;5015846;28;20230;-72
2023/06/30 13:40:06;;;;;;;15.38;12.55;;;;;;;;;;5025618;28;20224;-72
2023/06/30 13:43:10;;;;;;;16.77;13.45;;;;;;;;;;5015643;28;20228;-72
2023/06/30 13:46:15;;;;;;;16.00;12.60;;;;;;;;;;5015287;28;20188;-73
2023/06/30 13:49:19;;;;;;;16.67;12.65;;;;;;;;;;5015964;28;20188;-72
2023/06/30 13:52:23;;;;;;;16.67;12.75;;;;;;;;;;5015103;28;20218;-72
2023/06/30 13:55:27;;;;;;;17.83;13.38;;;;;;;;;;5015311;28;20229;-72
2023/06/30 13:58:31;;;;;;;21.20;13.07;;;;;;;;;;5014510;28;20188;-72
2023/06/30 14:01:35;;;;;;;14.57;12.77;;;;;;;;;;5014709;28;20246;-72
2023/06/30 14:04:39;;;;;;;17.15;12.43;;;;;;;;;;5015389;28;20189;-71
2023/06/30 14:07:43;;;;;;;14.88;12.45;;;;;;;;;;5015471;28;20191;-72
2023/06/30 14:10:48;;;;;;;15.93;13.00;;;;;;;;;;5015415;28;20203;-73
2023/06/30 14:13:53;;;;;;;15.55;12.40;;;;;;;;;;5015344;28;20190;-72
2023/06/30 14:16:57;;;;;;;15.02;12.43;;;;;;;;;;5014442;28;20581;-72
2023/06/30 14:20:01;;;;;;;17.33;12.95;;;;;;;;;;5015239;28;20665;-72
2023/06/30 14:23:05;;;;;;;14.45;12.35;;;;;;;;;;5014011;28;20225;-72
2023/06/30 14:26:09;;;;;;;16.60;13.80;;;;;;;;;;5014451;28;20576;-72
2023/06/30 14:29:14;;;;;;;16.98;13.07;;;;;;;;;;5030043;22;20701;-74
2023/06/30 14:32:20;;;;;;;16.58;11.85;;;;;;;;;;5015478;28;20610;-74
2023/06/30 14:35:24;;;;;;;13.85;9.52;;;;;;;;;;5015164;28;20595;-74
2023/06/30 14:38:29;;;;;;;13.73;10.07;;;;;;;;;;5014945;28;20528;-74
2023/06/30 14:41:33;;;;;;;16.10;10.88;;;;;;;;;;5015229;28;20727;-74
2023/06/30 14:44:37;;;;;;;16.33;11.80;;;;;;;;;;5014232;28;20205;-74
2023/06/30 14:47:41;;;;;;;19.55;14.30;;;;;;;;;;5015140;28;20189;-74
2023/06/30 14:50:45;;;;;;;18.10;14.48;;;;;;;;;;5014182;28;20551;-74
2023/06/30 14:53:50;;;;;;;20.20;15.23;;;;;;;;;;5014940;28;20209;-73
2023/06/30 14:56:54;;;;;;;20.63;13.87;;;;;;;;;;5014042;28;20217;-74
2023/06/30 14:59:58;;;;;;;19.73;14.73;;;;;;;;;;5014729;28;20204;-73
2023/06/30 15:03:04;;;;;;;21.60;15.37;;;;;;;;;;5015150;28;20220;-73
2023/06/30 15:06:08;;;;;;;26.07;16.13;;;;;;;;;;5003232;28;20182;-73
2023/06/30 15:09:11;;;;;;;29.43;18.60;;;;;;;;;;5014849;28;20192;-74
2023/06/30 15:12:15;;;;;;;27.60;18.53;;;;;;;;;;5013709;28;20229;-74
2023/06/30 15:15:20;;;;;;;26.03;19.07;;;;;;;;;;5014283;28;20209;-73
2023/06/30 15:18:24;;;;;;;24.83;18.80;;;;;;;;;;5014085;28;20189;-74
2023/06/30 15:21:28;;;;;;;31.93;19.43;;;;;;;;;;5002648;28;20224;-73
2023/06/30 15:24:32;;;;;;;27.13;19.60;;;;;;;;;;5013743;28;20540;-75
2023/06/30 15:27:35;;;;;;;27.27;17.90;;;;;;;;;;5013458;28;20185;-74
2023/06/30 15:30:40;;;;;;;28.73;19.17;;;;;;;;;;4991063;28;20184;-74
2023/06/30 15:33:44;;;;;;;28.60;19.80;;;;;;;;;;5014278;28;20184;-75
2023/06/30 15:36:48;;;;;;;24.43;17.20;;;;;;;;;;5014154;28;20219;-75
2023/06/30 15:39:52;;;;;;;26.13;17.97;;;;;;;;;;5002053;28;20188;-75
2023/06/30 15:42:56;;;;;;;27.50;19.57;;;;;;;;;;5013520;28;20228;-74
2023/06/30 15:46:00;;;;;;;28.23;19.10;;;;;;;;;;5014123;28;20533;-74
2023/06/30 15:49:05;;;;;;;26.33;18.13;;;;;;;;;;5014087;28;20552;-74
2023/06/30 15:52:08;;;;;;;26.27;18.93;;;;;;;;;;5013767;28;20587;-74
2023/06/30 15:55:15;;;;;;;23.47;17.87;;;;;;;;;;5001852;28;20237;-74
2023/06/30 15:58:19;;;;;;;22.93;16.97;;;;;;;;;;5013773;28;20182;-74
2023/06/30 16:01:23;;;;;;;21.50;16.50;;;;;;;;;;5013705;28;20213;-74
2023/06/30 16:04:28;;;;;;;21.20;16.40;;;;;;;;;;5012931;28;20194;-74
2023/06/30 16:07:32;;;;;;;22.90;17.20;;;;;;;;;;5013668;28;20191;-74
2023/06/30 16:10:36;;;;;;;24.33;17.47;;;;;;;;;;5013995;28;20206;-74
2023/06/30 16:13:40;;;;;;;23.17;17.50;;;;;;;;;;5013791;28;20189;-75
2023/06/30 16:16:45;;;;;;;27.00;18.87;;;;;;;;;;5013887;28;20688;-74
2023/06/30 16:19:49;;;;;;;24.33;18.47;;;;;;;;;;5001374;28;20688;-74
2023/06/30 16:22:53;;;;;;;26.13;18.20;;;;;;;;;;4990067;28;20231;-73
2023/06/30 16:25:57;;;;;;;24.77;18.63;;;;;;;;;;5012939;28;20189;-74
2023/06/30 16:29:01;;;;;;;26.33;18.20;;;;;;;;;;5012522;28;20212;-74
2023/06/30 16:32:06;;;;;;;25.00;18.80;;;;;;;;;;5012383;28;20228;-74
2023/06/30 16:35:10;;;;;;;27.63;19.87;;;;;;;;;;5013251;28;20197;-74
2023/06/30 16:38:15;;;;;;;26.90;19.83;;;;;;;;;;5012342;28;20695;-74
2023/06/30 16:41:19;;;;;;;27.43;19.90;;;;;;;;;;5013107;28;20718;-74
2023/06/30 16:44:26;;;;;;;29.53;19.50;;;;;;;;;;5013414;28;20204;-73
2023/06/30 16:47:30;;;;;;;27.23;20.50;;;;;;;;;;5012329;28;20182;-74
2023/06/30 16:50:34;;;;;;;26.83;19.80;;;;;;;;;;5012921;28;20192;-74
2023/06/30 16:53:39;;;;;;;25.90;19.17;;;;;;;;;;5012660;28;20544;-74
2023/06/30 16:56:43;;;;;;;28.23;20.23;;;;;;;;;;5013328;28;20208;-74
2023/06/30 16:59:47;;;;;;;28.70;19.83;;;;;;;;;;5012987;28;20180;-74
2023/06/30 17:02:52;;;;;;;32.83;21.03;;;;;;;;;;5012145;28;20236;-74
2023/06/30 17:05:56;;;;;;;25.47;20.13;;;;;;;;;;5011882;28;20575;-74
2023/06/30 17:09:00;;;;;;;26.40;20.33;;;;;;;;;;5012419;28;20188;-74
2023/06/30 17:12:05;;;;;;;27.70;20.27;;;;;;;;;;5012229;28;20232;-74
2023/06/30 17:15:09;;;;;;;28.50;20.47;;;;;;;;;;5012117;28;20185;-74
2023/06/30 17:18:13;;;;;;;27.57;20.50;;;;;;;;;;5016187;28;20189;-74
2023/06/30 17:21:17;;;;;;;28.77;20.97;;;;;;;;;;5015555;28;20228;-74
2023/06/30 17:24:21;;;;;;;27.23;20.53;;;;;;;;;;5016239;28;20224;-75
2023/06/30 17:27:25;;;;;;;26.57;18.70;;;;;;;;;;5016100;28;20196;-75
2023/06/30 17:30:30;;;;;;;27.93;20.53;;;;;;;;;;5015377;28;20546;-74
2023/06/30 17:33:34;;;;;;;27.40;21.03;;;;;;;;;;5015219;28;20188;-74
2023/06/30 17:36:38;;;;;;;25.63;19.80;;;;;;;;;;5016308;28;20212;-74
2023/06/30 17:39:42;;;;;;;29.27;22.13;;;;;;;;;;5015250;28;20188;-74
2023/06/30 17:42:46;;;;;;;28.90;21.80;;;;;;;;;;5016001;28;20224;-74
2023/06/30 17:45:50;;;;;;;27.53;20.27;;;;;;;;;;5014772;28;20224;-74
2023/06/30 17:49:15;;;;;;;32.23;21.90;;;;;;;;;;5015442;28;20200;-75
2023/06/30 17:52:19;;;;;;;29.43;21.53;;;;;;;;;;5015759;28;20225;-74
2023/06/30 17:55:24;;;;;;;28.70;21.03;;;;;;;;;;5014832;28;20197;-75
2023/06/30 17:58:28;;;;;;;30.60;22.73;;;;;;;;;;5015412;28;20181;-74
2023/06/30 18:01:32;;;;;;;28.43;21.23;;;;;;;;;;5015568;28;20220;-74
2023/06/30 18:04:36;;;;;;;28.53;21.40;;;;;;;;;;5003058;28;20193;-74
2023/06/30 18:07:40;;;;;;;30.63;20.90;;;;;;;;;;5015184;28;20208;-74
2023/06/30 18:10:45;;;;;;;29.90;23.50;;;;;;;;;;5015008;28;20189;-74
2023/06/30 18:13:49;;;;;;;33.33;21.97;;;;;;;;;;5014575;28;20188;-74